Airfield :
LOGIN :

Register | Disclaimer

   EN    FR    IT 

 










Legend :    VFR   Marginal VFR   IFR   Intensive IFR   Very Intensive IFR
Visi :
Ceiling :
>= 8 km
>= 3000ft
5 to 8 km
1000 to 3000 ft
1500m to 5 km
500 to 1000 ft
800 to 1500m
200 to 500 ft
< 800m
< 200 ft
Symbols :   Thunderstorms  Fog  Heavy snow  Heavy precipitations  Wind > 20 kt
SIGMETs :     Misc.  Thunderstorms  Icing  Turbulence  Mountain Waves  Volcanic Ashes






- Airport Elevation : 390 ft
- IATA code : NQY


EGHQ - Newquay

CURRENT METAR :
  • 110350Z AUTO 17006KT 9999 SCT037/// 06/05 Q1003 RERA

EXPIRED METARs :
  • 110320Z AUTO 17007KT 9999 RA BKN041/// 07/06 Q1003
  • 110250Z AUTO 16006KT 9999 BKN044/// 07/06 Q1003
  • 110220Z AUTO 16007KT 9999 FEW047/// 06/05 Q1003
  • 110150Z AUTO 17007KT 9999 NCD 07/06 Q1003
  • 110120Z AUTO 16008KT 9999 NCD 07/06 Q1003

TAF TAF EGHQ
Valid from the 11 at 03:00 until the 11 at 12:00 UTC


110156Z 1103/1112 16007KT 9999 FEW025
TEMPO 1103/1112 7000 SHRA
BECMG 1106/1109 16017KT
TEMPO 1108/1111 16020G32KT
PROB30
TEMPO 1109/1112 3000 +TSRAGS BKN012 BKN025CB
BECMG 1110/1112 25017KT



MET'MAP, your aeronautical weather chart ! - Copyright ORBIFLY December 2007 - Disclaimer

ORBIFLY MET'MAP TEAM :

Programming & Development : Alexandra Zaïnal
Concept & original design : Baudouin d'Aumeries
Assistance for programming : Marc-Olivier Méhu
Technical & hardware support : Manuel Goepfert

Contact : metmap@orbifly.com




SOURCES & CREDITS :

   NOAA